Time;durP1;ratioP1;P1;durP2;ratioP2;P2;SDS_P1;SDS_P2;PMS_P1;PMS_P2;Temp;Humidity;BMP_temperature;BMP_pressure;BME280_temperature;BME280_humidity;BME280_pressure;Samples;Min_cycle;Max_cycle;Signal;HPM_P1;HPM_P2
2022/12/04 00:01:09;;;;;;;19.50;14.58;;;5.80;99.90;;;;;;1871462;76;21114;-86
2022/12/04 00:06:41;;;;;;;17.85;13.43;;;5.90;99.90;;;;;;1957436;72;23506;-87
2022/12/04 00:09:33;;;;;;;20.77;14.18;;;6.00;99.90;;;;;;1906531;75;21143;-86
2022/12/04 00:12:25;;;;;;;19.82;14.28;;;5.90;99.90;;;;;;1894553;75;21087;-86
2022/12/04 00:15:17;;;;;;;18.98;14.00;;;5.90;99.90;;;;;;1892649;75;21235;-86
2022/12/04 00:18:10;;;;;;;17.75;13.30;;;5.90;99.90;;;;;;1902135;75;21153;-86
2022/12/04 00:21:06;;;;;;;18.87;13.70;;;5.90;99.90;;;;;;1894086;75;21172;-85
2022/12/04 00:23:58;;;;;;;18.62;13.85;;;5.90;99.90;;;;;;1893931;75;21179;-86
2022/12/04 00:26:51;;;;;;;19.20;14.07;;;5.90;99.90;;;;;;1889254;75;21098;-86
2022/12/04 00:29:43;;;;;;;19.20;13.48;;;5.90;99.90;;;;;;1906205;75;21629;-86
2022/12/04 00:32:34;;;;;;;18.70;13.65;;;5.90;99.90;;;;;;1900512;75;21135;-87
2022/12/04 00:35:26;;;;;;;18.85;14.03;;;5.90;99.90;;;;;;1884862;75;21211;-86
2022/12/04 00:38:19;;;;;;;18.57;13.00;;;5.90;99.90;;;;;;1882278;75;21263;-86
2022/12/04 00:41:10;;;;;;;18.35;13.65;;;5.80;99.90;;;;;;1888800;75;21605;-86
2022/12/04 00:44:03;;;;;;;21.57;13.80;;;5.90;99.90;;;;;;1893586;75;21105;-85
2022/12/04 00:46:54;;;;;;;21.23;14.13;;;6.00;99.90;;;;;;1897515;75;21191;-86
2022/12/04 00:49:46;;;;;;;20.17;13.13;;;5.90;99.90;;;;;;1908847;75;21517;-87
2022/12/04 00:52:38;;;;;;;18.90;13.00;;;5.90;99.90;;;;;;1905980;75;21094;-86
2022/12/04 00:55:29;;;;;;;20.23;13.57;;;5.90;99.90;;;;;;1904734;75;21067;-86
2022/12/04 00:58:23;;;;;;;19.10;13.93;;;5.90;99.90;;;;;;1900951;75;21117;-86
2022/12/04 01:01:16;;;;;;;18.85;13.80;;;5.90;99.90;;;;;;1905897;75;21582;-87
2022/12/04 01:04:08;;;;;;;18.25;13.53;;;5.90;99.90;;;;;;1923756;73;21167;-85
2022/12/04 01:06:59;;;;;;;17.80;12.90;;;5.80;99.90;;;;;;1889804;75;21091;-87
2022/12/04 01:09:52;;;;;;;18.32;13.65;;;5.80;99.90;;;;;;1900800;75;21106;-85
2022/12/04 01:12:44;;;;;;;19.80;13.55;;;5.90;99.90;;;;;;1895738;75;21114;-87
2022/12/04 01:15:39;;;;;;;17.70;14.05;;;5.80;99.90;;;;;;1894746;75;21106;-86
2022/12/04 01:18:30;;;;;;;20.52;13.60;;;5.80;99.90;;;;;;1894525;75;21193;-87
2022/12/04 01:21:21;;;;;;;19.12;13.22;;;5.80;99.90;;;;;;1897004;75;21110;-87
2022/12/04 01:24:13;;;;;;;17.98;12.60;;;5.70;99.90;;;;;;1885322;75;21131;-87
2022/12/04 01:27:05;;;;;;;19.87;13.62;;;5.70;99.90;;;;;;1882237;75;21088;-87
2022/12/04 01:29:59;;;;;;;18.37;13.88;;;5.70;99.90;;;;;;1878705;75;21205;-86
2022/12/04 01:32:50;;;;;;;17.20;12.60;;;5.70;99.90;;;;;;1886456;75;21379;-86
2022/12/04 01:35:42;;;;;;;19.85;12.73;;;5.70;99.90;;;;;;1871709;75;21115;-86
2022/12/04 01:38:33;;;;;;;17.62;13.08;;;5.70;99.90;;;;;;1903633;75;21055;-86
2022/12/04 01:41:27;;;;;;;18.52;13.32;;;5.70;99.90;;;;;;1898355;75;21107;-86
2022/12/04 01:44:21;;;;;;;17.70;13.05;;;5.70;99.90;;;;;;1882080;75;21063;-86
2022/12/04 01:47:12;;;;;;;19.07;13.60;;;5.70;99.90;;;;;;1898418;75;21179;-86
2022/12/04 01:50:09;;;;;;;20.90;14.38;;;5.70;99.90;;;;;;1895483;75;21110;-85
2022/12/04 01:53:01;;;;;;;20.02;13.83;;;5.70;99.90;;;;;;1907100;75;21164;-87
2022/12/04 01:55:55;;;;;;;19.55;14.43;;;5.60;99.90;;;;;;1893444;75;21406;-86
2022/12/04 01:58:50;;;;;;;17.85;13.20;;;5.60;99.90;;;;;;1880236;75;21107;-86
2022/12/04 02:01:47;;;;;;;19.90;13.15;;;5.60;99.90;;;;;;1888212;75;21172;-87
2022/12/04 02:04:40;;;;;;;17.90;12.93;;;5.70;99.90;;;;;;1884629;75;21095;-86
2022/12/04 02:07:32;;;;;;;19.23;12.93;;;5.70;99.90;;;;;;1886022;74;21240;-85
2022/12/04 02:10:27;;;;;;;17.95;13.05;;;5.70;99.90;;;;;;1894287;74;21098;-85
2022/12/04 02:13:22;;;;;;;19.02;13.13;;;5.70;99.90;;;;;;1907524;74;21102;-86
2022/12/04 02:16:17;;;;;;;17.75;12.60;;;5.70;99.90;;;;;;1907063;74;21129;-85
2022/12/04 02:19:16;;;;;;;18.10;12.98;;;5.60;99.90;;;;;;1893746;74;21125;-85
2022/12/04 02:22:14;;;;;;;16.35;12.93;;;5.60;99.90;;;;;;1914911;74;21183;-85
2022/12/04 02:25:10;;;;;;;16.67;12.43;;;5.50;99.90;;;;;;1915859;74;21054;-86
2022/12/04 02:28:10;;;;;;;19.77;12.90;;;5.50;99.90;;;;;;1893045;76;21216;-86
2022/12/04 02:31:04;;;;;;;17.75;12.73;;;5.50;99.90;;;;;;1910201;74;21195;-86
2022/12/04 02:33:59;;;;;;;16.73;12.70;;;5.40;99.90;;;;;;1905742;74;21374;-86
2022/12/04 02:36:54;;;;;;;18.05;13.10;;;5.40;99.90;;;;;;1903823;74;21098;-86
2022/12/04 02:39:48;;;;;;;16.52;11.93;;;5.50;99.90;;;;;;1904133;74;21202;-86
2022/12/04 02:42:43;;;;;;;19.17;12.85;;;5.50;99.90;;;;;;1904378;74;21572;-87
2022/12/04 02:45:37;;;;;;;20.40;13.35;;;5.50;99.90;;;;;;1895559;74;21162;-86
2022/12/04 02:48:32;;;;;;;18.90;12.63;;;5.50;99.90;;;;;;1904425;74;21116;-87
2022/12/04 02:51:26;;;;;;;17.70;13.00;;;5.50;99.90;;;;;;1903758;74;21102;-86
2022/12/04 02:54:20;;;;;;;18.17;12.73;;;5.40;99.90;;;;;;1904025;74;21121;-86
2022/12/04 02:57:14;;;;;;;17.75;13.25;;;5.50;99.90;;;;;;1925510;74;21113;-86
2022/12/04 03:00:10;;;;;;;18.45;12.53;;;5.40;99.90;;;;;;1910121;74;21106;-86
2022/12/04 03:03:04;;;;;;;17.60;12.93;;;5.40;99.90;;;;;;1904735;74;21139;-86
2022/12/04 03:06:00;;;;;;;19.20;12.47;;;5.50;99.90;;;;;;1903046;74;21118;-86
2022/12/04 03:08:54;;;;;;;18.32;13.08;;;5.40;99.90;;;;;;1885369;74;21115;-87
2022/12/04 03:11:49;;;;;;;16.00;12.82;;;5.40;99.90;;;;;;1885633;75;21190;-86
2022/12/04 03:14:44;;;;;;;20.17;14.20;;;5.40;99.90;;;;;;1899203;75;21119;-86
2022/12/04 03:17:39;;;;;;;18.57;13.68;;;5.40;99.90;;;;;;1894594;75;21128;-85
2022/12/04 03:20:33;;;;;;;19.37;13.88;;;5.30;99.90;;;;;;1894093;75;21098;-86
2022/12/04 03:23:28;;;;;;;19.32;13.55;;;5.30;99.90;;;;;;1894330;75;21095;-86
2022/12/04 03:26:23;;;;;;;19.20;13.62;;;5.30;99.90;;;;;;1896394;75;21192;-86
2022/12/04 03:29:18;;;;;;;17.10;13.60;;;5.30;99.90;;;;;;1883476;76;21092;-86
2022/12/04 03:32:13;;;;;;;17.77;13.25;;;5.30;99.90;;;;;;1882696;75;21139;-86
2022/12/04 03:35:07;;;;;;;16.95;12.73;;;5.30;99.90;;;;;;1875191;75;21092;-86
2022/12/04 03:40:46;;;;;;;17.23;12.70;;;5.20;99.90;;;;;;1953755;72;22190;-86
2022/12/04 03:43:41;;;;;;;19.70;12.82;;;5.20;99.90;;;;;;1920892;74;21086;-86
2022/12/04 03:46:35;;;;;;;17.00;12.30;;;5.10;99.90;;;;;;1894941;75;21139;-87
2022/12/04 03:49:30;;;;;;;16.50;12.68;;;5.20;99.90;;;;;;1894855;75;21139;-87
2022/12/04 03:52:24;;;;;;;18.30;13.20;;;5.20;99.90;;;;;;1895208;75;21193;-87
2022/12/04 03:55:20;;;;;;;17.98;12.23;;;5.30;99.90;;;;;;1896652;75;21151;-86
2022/12/04 03:58:15;;;;;;;16.55;12.43;;;5.30;99.90;;;;;;1896978;75;21110;-85
2022/12/04 04:01:10;;;;;;;17.92;12.80;;;5.30;99.90;;;;;;1895245;75;21098;-86
2022/12/04 04:04:06;;;;;;;16.67;12.37;;;5.30;99.90;;;;;;1894957;75;21172;-85
2022/12/04 04:07:01;;;;;;;17.10;12.65;;;5.30;99.90;;;;;;1895075;75;21101;-87
2022/12/04 04:09:55;;;;;;;16.90;12.50;;;5.20;99.90;;;;;;1900751;75;21087;-86
2022/12/04 04:24:13;;;;;;;17.95;12.93;;;5.20;99.90;;;;;;1896365;75;21063;-87
2022/12/04 04:25:23;;;;;;;21.65;15.28;;;5.10;99.90;;;;;;1894452;75;21135;-86
2022/12/04 04:28:35;;;;;;;17.05;12.40;;;5.10;99.90;;;;;;1894544;75;21140;-86
2022/12/04 04:31:29;;;;;;;20.82;12.95;;;5.20;99.90;;;;;;1895499;75;21106;-86
2022/12/04 04:34:24;;;;;;;17.30;13.00;;;5.20;99.90;;;;;;1916826;75;21400;-86
2022/12/04 04:37:21;;;;;;;22.90;12.95;;;5.20;99.90;;;;;;1897846;75;21539;-87
2022/12/04 04:40:18;;;;;;;17.15;12.55;;;5.30;99.90;;;;;;1895008;75;21134;-86
2022/12/04 04:43:12;;;;;;;16.90;12.60;;;5.40;99.90;;;;;;1882875;75;21059;-86
2022/12/04 04:46:07;;;;;;;17.40;12.13;;;5.40;99.90;;;;;;1897493;75;21091;-87
2022/12/04 04:51:48;;;;;;;17.20;12.63;;;5.50;99.90;;;;;;1957278;72;22666;-87
2022/12/04 04:54:41;;;;;;;18.20;12.80;;;5.40;99.90;;;;;;1886593;75;21170;-86
2022/12/04 04:57:39;;;;;;;17.85;13.25;;;5.40;99.90;;;;;;1888400;75;21154;-87
2022/12/04 05:00:32;;;;;;;17.10;12.47;;;5.40;99.90;;;;;;1895135;75;21211;-86
2022/12/04 05:03:23;;;;;;;18.07;13.30;;;5.40;99.90;;;;;;1883752;75;21102;-85
2022/12/04 05:06:15;;;;;;;17.35;12.63;;;5.40;99.90;;;;;;1895386;75;21137;-85
2022/12/04 05:09:07;;;;;;;16.73;12.37;;;5.50;99.90;;;;;;1894701;75;21164;-85
2022/12/04 05:11:59;;;;;;;16.97;12.45;;;5.50;99.90;;;;;;1894361;75;21102;-85
2022/12/04 05:14:50;;;;;;;18.07;12.93;;;5.50;99.90;;;;;;1836464;77;21119;-87
2022/12/04 05:17:42;;;;;;;17.65;13.15;;;5.50;99.90;;;;;;1896125;75;21098;-86
2022/12/04 05:20:36;;;;;;;16.87;12.43;;;5.40;99.90;;;;;;1851951;76;21109;-86
2022/12/04 05:23:27;;;;;;;18.75;13.28;;;5.40;99.90;;;;;;1906224;75;21099;-85
2022/12/04 05:26:19;;;;;;;16.90;12.55;;;5.40;99.90;;;;;;1903510;75;21168;-85
2022/12/04 05:29:11;;;;;;;17.15;12.98;;;5.50;99.90;;;;;;1898027;75;21591;-86
2022/12/04 05:32:02;;;;;;;16.93;12.23;;;5.50;99.90;;;;;;1886233;75;21099;-85
2022/12/04 05:34:55;;;;;;;18.82;13.88;;;5.50;99.90;;;;;;1887439;75;21246;-85
2022/12/04 05:40:26;;;;;;;18.75;13.30;;;5.50;99.90;;;;;;1950205;72;22234;-87
2022/12/04 05:46:01;;;;;;;20.32;13.70;;;5.50;99.90;;;;;;1947662;72;22197;-87
2022/12/04 05:48:52;;;;;;;16.70;12.55;;;5.50;99.90;;;;;;1889051;75;21111;-86
2022/12/04 05:51:44;;;;;;;19.45;13.15;;;5.50;99.90;;;;;;1884591;75;21095;-86
2022/12/04 05:54:37;;;;;;;18.52;12.78;;;5.60;99.90;;;;;;1876450;75;21172;-86
2022/12/04 05:57:29;;;;;;;19.80;12.88;;;5.60;99.90;;;;;;1872389;75;21127;-86
2022/12/04 06:00:21;;;;;;;19.62;13.75;;;5.60;99.90;;;;;;1890477;75;21052;-86
2022/12/04 06:05:52;;;;;;;19.20;13.53;;;5.70;99.90;;;;;;1947993;72;22669;-87
2022/12/04 06:08:43;;;;;;;19.07;13.90;;;5.70;99.90;;;;;;1848750;77;21094;-86
2022/12/04 06:11:38;;;;;;;18.77;13.35;;;5.70;99.90;;;;;;1883934;75;21151;-87
2022/12/04 06:14:29;;;;;;;17.82;13.08;;;5.70;99.90;;;;;;1883993;76;21123;-86
2022/12/04 06:17:22;;;;;;;19.92;13.43;;;5.70;99.90;;;;;;1906352;75;21370;-86
2022/12/04 06:20:14;;;;;;;17.27;12.40;;;5.70;99.90;;;;;;1886936;75;21114;-85
2022/12/04 06:23:06;;;;;;;19.98;13.72;;;5.70;99.90;;;;;;1896729;75;21162;-86
2022/12/04 06:26:00;;;;;;;17.45;12.85;;;5.70;99.90;;;;;;1903499;75;21156;-86
2022/12/04 06:29:00;;;;;;;19.30;13.35;;;5.70;99.90;;;;;;1895104;75;21105;-86
2022/12/04 06:31:52;;;;;;;17.82;13.65;;;5.70;99.90;;;;;;1912767;75;21091;-86
2022/12/04 06:34:58;;;;;;;17.37;13.30;;;5.70;99.90;;;;;;1893798;75;21201;-85
2022/12/04 06:37:57;;;;;;;18.10;13.15;;;5.70;99.90;;;;;;1905636;75;21114;-86
2022/12/04 06:40:49;;;;;;;17.40;12.95;;;5.70;99.90;;;;;;1901483;75;21124;-85
2022/12/04 06:43:41;;;;;;;17.12;13.30;;;5.60;99.90;;;;;;1896581;75;21055;-87
2022/12/04 06:46:35;;;;;;;20.23;13.22;;;5.60;99.90;;;;;;1894745;75;21094;-86
2022/12/04 06:49:26;;;;;;;18.30;13.32;;;5.60;99.90;;;;;;1892675;75;21169;-86
2022/12/04 06:52:19;;;;;;;17.37;12.90;;;5.60;99.90;;;;;;1903389;75;21105;-86
2022/12/04 06:55:10;;;;;;;19.57;13.58;;;5.60;99.90;;;;;;1902572;75;21066;-85
2022/12/04 06:58:02;;;;;;;18.67;13.48;;;5.60;99.90;;;;;;1915515;75;21095;-86
2022/12/04 07:00:55;;;;;;;17.85;12.95;;;5.60;99.90;;;;;;1894594;75;21628;-86
2022/12/04 07:03:47;;;;;;;17.48;12.78;;;5.60;99.90;;;;;;1922254;73;21526;-86
2022/12/04 07:06:41;;;;;;;18.67;13.62;;;5.60;99.90;;;;;;1915408;74;21147;-86
2022/12/04 07:09:32;;;;;;;18.48;13.78;;;5.60;99.90;;;;;;1911873;74;21094;-87
2022/12/04 07:12:24;;;;;;;18.67;13.32;;;5.50;99.90;;;;;;1926201;74;21204;-86
2022/12/04 07:18:02;;;;;;;19.80;16.48;;;5.60;99.90;;;;;;1931210;72;28044;-86
2022/12/04 07:20:53;;;;;;;17.45;13.48;;;5.80;99.90;;;;;;1869773;75;21113;-86
2022/12/04 07:23:45;;;;;;;19.90;13.93;;;5.60;99.90;;;;;;1878092;75;21253;-85
2022/12/04 07:26:36;;;;;;;17.67;13.18;;;5.60;99.90;;;;;;1883163;75;21114;-85
2022/12/04 07:29:28;;;;;;;18.90;14.30;;;5.60;99.90;;;;;;1904736;75;21220;-87
2022/12/04 07:35:00;;;;;;;19.52;14.07;;;5.50;99.90;;;;;;1938287;72;22302;-86
2022/12/04 07:37:51;;;;;;;17.52;13.25;;;5.60;99.90;;;;;;1894021;75;21139;-86
2022/12/04 07:40:43;;;;;;;17.95;13.70;;;5.60;99.90;;;;;;1889632;75;21119;-87
2022/12/04 07:43:35;;;;;;;17.98;13.53;;;5.60;99.90;;;;;;1904387;75;21107;-86
2022/12/04 07:46:29;;;;;;;20.55;14.33;;;5.60;99.90;;;;;;1882673;75;21095;-86
2022/12/04 07:49:23;;;;;;;17.67;13.62;;;5.70;99.90;;;;;;1895511;74;21188;-86
2022/12/04 07:52:14;;;;;;;20.77;14.73;;;5.70;99.90;;;;;;1891980;75;21119;-86
2022/12/04 07:55:07;;;;;;;19.25;15.28;;;5.80;99.90;;;;;;1889967;75;21070;-86
2022/12/04 07:58:00;;;;;;;21.27;15.00;;;5.80;99.90;;;;;;1894230;74;21111;-86
2022/12/04 08:00:51;;;;;;;20.88;15.45;;;5.90;99.90;;;;;;1878309;75;21593;-86
2022/12/04 08:03:45;;;;;;;20.00;14.38;;;5.80;99.90;;;;;;1872739;75;21109;-85
2022/12/04 08:06:38;;;;;;;20.00;15.00;;;5.80;99.90;;;;;;1889441;75;21150;-86
2022/12/04 08:09:29;;;;;;;20.92;15.53;;;5.90;99.90;;;;;;1893630;75;21188;-87
2022/12/04 08:15:00;;;;;;;20.15;15.55;;;6.00;99.90;;;;;;1947331;72;22335;-87
2022/12/04 08:17:52;;;;;;;22.42;15.95;;;6.00;99.90;;;;;;1916467;75;21176;-86
2022/12/04 08:20:44;;;;;;;21.05;15.70;;;5.90;99.90;;;;;;1938637;73;21187;-85
2022/12/04 08:23:39;;;;;;;21.82;15.63;;;5.90;99.90;;;;;;1916702;75;21121;-85
2022/12/04 08:26:32;;;;;;;23.75;16.05;;;5.90;99.90;;;;;;1916827;75;21039;-85
2022/12/04 08:29:26;;;;;;;22.95;16.40;;;5.90;99.90;;;;;;1917032;75;21197;-85
2022/12/04 08:32:21;;;;;;;21.20;15.08;;;5.80;99.90;;;;;;1916872;75;21160;-87
2022/12/04 08:35:13;;;;;;;22.80;15.95;;;5.90;99.90;;;;;;1916855;75;21427;-85
2022/12/04 08:38:05;;;;;;;22.15;16.02;;;5.90;99.90;;;;;;1916774;75;21172;-85
2022/12/04 08:41:00;;;;;;;19.20;14.63;;;6.00;99.90;;;;;;1918198;75;21487;-85
2022/12/04 08:43:53;;;;;;;21.25;15.25;;;5.90;99.90;;;;;;1917048;75;21183;-85
2022/12/04 08:46:45;;;;;;;22.30;15.18;;;6.00;99.90;;;;;;1916922;75;21209;-87
2022/12/04 08:49:37;;;;;;;21.68;14.33;;;5.90;99.90;;;;;;1923164;73;21106;-86
2022/12/04 08:52:28;;;;;;;22.05;15.32;;;5.90;99.90;;;;;;1927572;73;21180;-85
2022/12/04 08:55:20;;;;;;;21.65;15.72;;;6.00;99.90;;;;;;1916822;75;21083;-85
2022/12/04 08:58:12;;;;;;;21.17;15.93;;;6.00;99.90;;;;;;1916664;75;21110;-85
2022/12/04 09:01:09;;;;;;;24.60;16.52;;;6.00;99.90;;;;;;1923785;73;21131;-85
2022/12/04 09:04:01;;;;;;;24.30;16.55;;;6.00;99.90;;;;;;1924798;73;21058;-85
2022/12/04 09:06:53;;;;;;;23.35;16.50;;;6.00;99.90;;;;;;1917110;75;21117;-85
2022/12/04 09:09:45;;;;;;;24.43;16.93;;;6.00;99.90;;;;;;1931851;73;21167;-86
2022/12/04 09:12:38;;;;;;;20.57;15.72;;;6.00;99.90;;;;;;1917783;73;21114;-86
2022/12/04 09:15:30;;;;;;;23.98;17.00;;;6.00;99.90;;;;;;1938575;74;21142;-86
2022/12/04 09:18:21;;;;;;;22.42;16.50;;;6.00;99.90;;;;;;1920223;74;21151;-87
2022/12/04 09:21:17;;;;;;;24.37;17.25;;;6.10;99.90;;;;;;1919806;74;21125;-87
2022/12/04 09:24:09;;;;;;;23.05;16.25;;;6.20;99.90;;;;;;1919762;74;21183;-86
2022/12/04 09:27:02;;;;;;;24.40;16.95;;;6.10;99.90;;;;;;1917699;74;21050;-85
2022/12/04 09:29:54;;;;;;;23.30;17.10;;;6.00;99.90;;;;;;1919232;74;21369;-86
2022/12/04 09:32:46;;;;;;;22.67;16.77;;;6.10;99.90;;;;;;1937123;74;21051;-86
2022/12/04 09:35:39;;;;;;;22.62;16.67;;;6.20;99.90;;;;;;1919927;74;21069;-86
2022/12/04 09:38:31;;;;;;;24.05;17.90;;;6.30;99.90;;;;;;1925682;74;21162;-85
2022/12/04 09:41:34;;;;;;;24.18;17.40;;;6.40;99.90;;;;;;1935145;74;21145;-85
2022/12/04 09:44:28;;;;;;;20.85;15.75;;;6.50;99.90;;;;;;1917674;74;21146;-85
2022/12/04 09:47:24;;;;;;;24.43;16.15;;;6.50;99.90;;;;;;1914115;74;21054;-85
2022/12/04 09:50:19;;;;;;;20.82;15.32;;;6.60;99.90;;;;;;1914928;74;21110;-85
2022/12/04 09:53:15;;;;;;;22.98;15.85;;;6.60;99.90;;;;;;1921335;74;21039;-85
2022/12/04 09:56:09;;;;;;;22.85;16.57;;;6.60;99.90;;;;;;1933519;74;21090;-85
2022/12/04 09:59:05;;;;;;;23.38;17.25;;;6.60;99.90;;;;;;1853827;76;21100;-86
2022/12/04 10:02:01;;;;;;;25.35;18.20;;;6.60;99.90;;;;;;1915945;74;21120;-85
2022/12/04 10:04:53;;;;;;;25.62;17.90;;;6.60;99.90;;;;;;1914829;74;21162;-86
2022/12/04 10:07:47;;;;;;;24.70;17.37;;;6.60;99.90;;;;;;1923474;74;21513;-86
2022/12/04 10:10:42;;;;;;;23.55;17.45;;;6.60;99.90;;;;;;1917370;74;21159;-85
2022/12/04 10:16:56;;;;;;;24.32;20.02;;;6.80;99.90;;;;;;1937436;72;28119;-86
2022/12/04 10:22:42;;;;;;;20.55;16.30;;;7.00;99.90;;;;;;1943424;72;22685;-86
2022/12/04 10:25:36;;;;;;;22.27;16.52;;;7.00;99.90;;;;;;1897165;75;21091;-85
2022/12/04 10:31:14;;;;;;;22.42;16.23;;;7.00;99.90;;;;;;1941558;72;22193;-87
2022/12/04 10:34:11;;;;;;;23.20;16.70;;;7.10;99.90;;;;;;1899826;75;21123;-85
2022/12/04 10:37:07;;;;;;;22.60;16.87;;;7.10;99.90;;;;;;1892467;75;21191;-85
2022/12/04 10:40:11;;;;;;;20.68;15.58;;;7.00;99.90;;;;;;1898404;75;21080;-86
2022/12/04 10:43:06;;;;;;;21.97;16.15;;;6.90;99.90;;;;;;1883066;76;21192;-86
2022/12/04 10:45:58;;;;;;;20.45;15.32;;;6.80;99.90;;;;;;1883508;76;21216;-77
2022/12/04 10:48:52;;;;;;;21.02;15.55;;;6.80;99.90;;;;;;1898245;75;21109;-79
2022/12/04 10:51:46;;;;;;;22.62;16.02;;;6.90;99.90;;;;;;1883807;76;21135;-76
2022/12/04 10:54:41;;;;;;;22.17;15.70;;;6.90;99.90;;;;;;1899061;75;21149;-77
2022/12/04 10:57:40;;;;;;;21.97;15.58;;;6.90;99.90;;;;;;1887807;75;21156;-76
2022/12/04 11:03:23;;;;;;;20.92;15.50;;;6.90;99.90;;;;;;1941994;72;22223;-78
2022/12/04 11:06:15;;;;;;;23.20;16.67;;;6.90;99.90;;;;;;1916682;75;21094;-78
2022/12/04 11:09:07;;;;;;;21.07;16.25;;;6.80;99.90;;;;;;1940256;73;21136;-77
2022/12/04 11:12:09;;;;;;;25.72;17.62;;;6.80;99.90;;;;;;1917980;73;21160;-77
2022/12/04 11:15:11;;;;;;;22.17;16.67;;;6.80;99.90;;;;;;1930094;73;21156;-77
2022/12/04 11:18:12;;;;;;;21.52;15.88;;;6.70;99.90;;;;;;1934495;73;21166;-77
2022/12/04 11:21:06;;;;;;;21.65;16.62;;;6.70;99.90;;;;;;1931407;73;21094;-77
2022/12/04 11:23:58;;;;;;;23.22;16.40;;;6.70;99.90;;;;;;1918088;73;21162;-78
2022/12/04 11:26:52;;;;;;;24.67;18.90;;;6.90;99.90;;;;;;1923169;73;21177;-77
2022/12/04 11:29:45;;;;;;;26.85;19.02;;;6.90;99.90;;;;;;1916868;75;21168;-78
2022/12/04 11:32:45;;;;;;;29.27;18.07;;;7.00;99.90;;;;;;1916886;75;21157;-78
2022/12/04 11:35:37;;;;;;;21.93;16.67;;;7.20;99.90;;;;;;1916864;75;21062;-77
2022/12/04 11:38:29;;;;;;;24.67;18.50;;;7.30;99.90;;;;;;1858647;76;21643;-77
2022/12/04 11:41:28;;;;;;;23.02;17.42;;;7.30;99.90;;;;;;1939083;73;21105;-77
2022/12/04 11:44:27;;;;;;;23.50;17.80;;;7.40;99.90;;;;;;1857937;76;21171;-77
2022/12/04 11:47:20;;;;;;;22.27;15.75;;;7.20;99.90;;;;;;1916920;75;21189;-78
2022/12/04 11:50:16;;;;;;;23.80;17.65;;;7.20;99.90;;;;;;1930496;73;21124;-77
2022/12/04 11:53:16;;;;;;;24.52;17.42;;;7.20;99.90;;;;;;1918136;73;21105;-78
2022/12/04 11:56:22;;;;;;;24.12;17.02;;;7.30;99.90;;;;;;1863312;76;21110;-77
2022/12/04 11:59:31;;;;;;;23.40;17.30;;;7.20;99.90;;;;;;1939019;73;21175;-77
2022/12/04 12:02:37;;;;;;;22.58;16.60;;;7.30;99.90;;;;;;1934979;73;21122;-77
2022/12/04 12:05:59;;;;;;;21.52;15.88;;;7.30;99.90;;;;;;1904315;75;21126;-77
2022/12/04 12:09:15;;;;;;;26.70;17.35;;;7.30;99.90;;;;;;1919366;73;21071;-77
2022/12/04 12:12:10;;;;;;;21.57;16.07;;;7.30;99.90;;;;;;1912808;74;21119;-77
2022/12/04 12:15:06;;;;;;;25.40;18.15;;;7.30;99.90;;;;;;1916009;75;21099;-78
2022/12/04 12:18:19;;;;;;;23.20;16.82;;;7.30;99.90;;;;;;1909624;74;21152;-77
2022/12/04 12:21:16;;;;;;;23.15;16.57;;;7.40;99.90;;;;;;1919337;74;21114;-77
2022/12/04 12:24:27;;;;;;;22.22;17.17;;;7.50;99.90;;;;;;1903603;75;21165;-77
2022/12/04 12:27:30;;;;;;;22.00;15.95;;;7.50;99.90;;;;;;1902938;74;21098;-77
2022/12/04 12:30:23;;;;;;;21.02;16.17;;;7.50;99.90;;;;;;1910945;74;21059;-77
2022/12/04 12:33:19;;;;;;;21.27;16.15;;;7.60;99.90;;;;;;1936925;74;21213;-76
2022/12/04 12:36:12;;;;;;;23.40;17.65;;;7.60;99.90;;;;;;1916496;74;21618;-77
2022/12/04 12:39:07;;;;;;;23.50;17.50;;;7.60;99.90;;;;;;1866820;77;21197;-77
2022/12/04 12:42:01;;;;;;;24.65;19.00;;;7.50;99.90;;;;;;1856022;77;21151;-77
2022/12/04 12:44:58;;;;;;;26.12;18.52;;;7.40;99.90;;;;;;1873773;76;21208;-76
2022/12/04 12:47:52;;;;;;;22.98;17.50;;;7.40;99.90;;;;;;1867127;76;21127;-77
2022/12/04 12:50:47;;;;;;;29.90;22.77;;;7.40;99.90;;;;;;1853706;77;21143;-77
2022/12/04 12:53:43;;;;;;;27.02;19.23;;;7.40;99.90;;;;;;1849974;77;21199;-76
2022/12/04 12:59:20;;;;;;;22.00;17.25;;;7.30;99.90;;;;;;1957549;72;22338;-77
2022/12/04 13:02:15;;;;;;;24.27;17.55;;;7.20;99.90;;;;;;1897374;73;21063;-77
2022/12/04 13:05:11;;;;;;;24.25;17.32;;;7.20;99.90;;;;;;1902685;75;21066;-78
2022/12/04 13:10:47;;;;;;;22.00;16.45;;;7.40;99.90;;;;;;1944910;72;22201;-78
2022/12/04 13:13:41;;;;;;;22.95;17.10;;;7.50;99.90;;;;;;1859467;76;21110;-78
2022/12/04 13:16:36;;;;;;;24.32;18.17;;;7.40;99.90;;;;;;1936616;73;21164;-77
2022/12/04 13:19:30;;;;;;;21.48;16.85;;;7.40;99.90;;;;;;1916826;75;21086;-78
2022/12/04 13:22:27;;;;;;;22.73;17.05;;;7.50;99.90;;;;;;1917023;75;21066;-78
2022/12/04 13:25:45;;;;;;;25.27;18.30;;;7.50;99.90;;;;;;1916874;75;21097;-78
2022/12/04 13:28:44;;;;;;;21.48;16.48;;;7.40;99.90;;;;;;1856816;76;21204;-77
2022/12/04 13:31:38;;;;;;;23.30;16.60;;;7.40;99.90;;;;;;1924294;73;21144;-77
2022/12/04 13:34:41;;;;;;;24.07;17.67;;;7.40;99.90;;;;;;1916804;75;21208;-77
2022/12/04 13:37:52;;;;;;;24.25;18.37;;;7.50;99.90;;;;;;1916836;75;21091;-77
2022/12/04 13:43:34;;;;;;;25.10;18.82;;;7.50;99.90;;;;;;1940724;72;22243;-78
2022/12/04 13:49:22;;;;;;;25.17;18.37;;;7.50;99.90;;;;;;1939530;72;22204;-77
2022/12/04 13:52:25;;;;;;;23.80;17.32;;;7.50;99.90;;;;;;1896457;75;21109;-77
2022/12/04 13:55:29;;;;;;;23.62;16.40;;;7.50;99.90;;;;;;1901728;75;21159;-77
2022/12/04 13:58:28;;;;;;;24.43;18.25;;;7.50;99.90;;;;;;1890000;75;21183;-76
2022/12/04 14:01:27;;;;;;;21.50;16.55;;;7.50;99.90;;;;;;1895601;75;21193;-76
2022/12/04 14:04:28;;;;;;;24.77;17.37;;;7.40;99.90;;;;;;1893499;75;21190;-77
2022/12/04 14:10:10;;;;;;;25.32;18.12;;;7.40;99.90;;;;;;1957395;72;22200;-78
2022/12/04 14:13:04;;;;;;;25.17;18.55;;;7.40;99.90;;;;;;1898811;75;21112;-77
2022/12/04 14:16:06;;;;;;;25.02;18.00;;;7.40;99.90;;;;;;1902431;75;21098;-78
2022/12/04 14:19:00;;;;;;;24.15;17.77;;;7.40;99.90;;;;;;1890978;75;21176;-78
2022/12/04 14:21:52;;;;;;;23.20;17.45;;;7.30;99.90;;;;;;1894293;75;21109;-77
2022/12/04 14:24:44;;;;;;;21.85;16.82;;;7.30;99.90;;;;;;1896386;75;21170;-77
2022/12/04 14:27:43;;;;;;;23.87;17.70;;;7.30;99.90;;;;;;1883519;76;21160;-78
2022/12/04 14:30:38;;;;;;;24.65;19.25;;;7.10;99.90;;;;;;1898107;75;21098;-77
2022/12/04 14:33:31;;;;;;;24.12;17.87;;;7.00;99.90;;;;;;1887531;75;21179;-77
2022/12/04 14:36:26;;;;;;;23.47;17.07;;;7.00;99.90;;;;;;1905979;75;21121;-77
2022/12/04 14:39:22;;;;;;;25.72;17.67;;;7.00;99.90;;;;;;1904661;75;21121;-77
2022/12/04 14:42:16;;;;;;;24.90;18.70;;;7.00;99.90;;;;;;1900470;75;21276;-78
2022/12/04 14:45:21;;;;;;;23.00;17.77;;;7.00;99.90;;;;;;1883541;76;21113;-76
2022/12/04 14:48:31;;;;;;;26.40;19.57;;;7.00;99.90;;;;;;1915090;75;21107;-77
2022/12/04 14:51:30;;;;;;;26.05;17.23;;;6.90;99.90;;;;;;1908877;75;21208;-79
2022/12/04 14:54:26;;;;;;;26.42;17.57;;;6.80;99.90;;;;;;1888457;75;21130;-79
2022/12/04 15:00:09;;;;;;;24.90;18.40;;;6.80;99.90;;;;;;1940217;72;22173;-78
2022/12/04 15:03:02;;;;;;;25.15;18.45;;;6.80;99.90;;;;;;1916595;75;21197;-78
2022/12/04 15:06:02;;;;;;;26.48;19.30;;;6.80;99.90;;;;;;1894667;75;21151;-77
2022/12/04 15:12:32;;;;;;;24.50;17.92;;;6.80;99.90;;;;;;1891133;75;21114;-79
2022/12/04 15:15:04;;;;;;;21.23;15.88;;;6.80;99.90;;;;;;1903404;75;21546;-79
2022/12/04 15:18:04;;;;;;;23.55;16.75;;;6.90;99.90;;;;;;1896481;75;21114;-79
2022/12/04 15:20:59;;;;;;;24.47;17.25;;;6.90;99.90;;;;;;1883801;76;21157;-76
2022/12/04 15:23:50;;;;;;;21.00;16.23;;;7.00;99.90;;;;;;1905174;75;21121;-78
2022/12/04 15:26:42;;;;;;;21.05;14.63;;;7.10;99.90;;;;;;1883279;76;21061;-78
2022/12/04 15:29:36;;;;;;;19.00;13.58;;;7.00;99.90;;;;;;1883873;76;21400;-78
2022/12/04 15:32:30;;;;;;;20.62;15.65;;;6.90;99.90;;;;;;1898282;75;21578;-77
2022/12/04 15:35:25;;;;;;;20.08;14.93;;;6.90;99.90;;;;;;1885018;75;21205;-77
2022/12/04 15:38:18;;;;;;;20.20;15.18;;;6.80;99.90;;;;;;1883053;75;21106;-77
2022/12/04 15:41:30;;;;;;;22.45;15.98;;;6.80;99.90;;;;;;1883509;76;21117;-77
2022/12/04 15:44:28;;;;;;;20.05;15.58;;;6.80;99.90;;;;;;1905733;75;21109;-77
2022/12/04 15:47:22;;;;;;;19.60;15.18;;;6.70;99.90;;;;;;1884313;76;21197;-77
2022/12/04 15:50:22;;;;;;;21.15;15.50;;;6.70;99.90;;;;;;1897742;75;21087;-79
2022/12/04 15:53:17;;;;;;;23.55;15.83;;;6.80;99.90;;;;;;1906066;75;21110;-77
2022/12/04 15:56:11;;;;;;;20.35;14.63;;;6.70;99.90;;;;;;1904717;73;21102;-77
2022/12/04 15:59:03;;;;;;;24.57;15.70;;;6.50;99.90;;;;;;1903118;74;21105;-77
2022/12/04 16:01:54;;;;;;;20.62;13.78;;;6.50;99.90;;;;;;1890755;75;21091;-76